createdAt,value
2018-02-23T00:00:44.844Z,87.55
2018-02-23T00:01:44.856Z,87.37
2018-02-23T00:02:44.870Z,87.84
2018-02-23T00:03:44.882Z,88.03
2018-02-23T00:04:44.896Z,88.22
2018-02-23T00:05:44.909Z,88.12
2018-02-23T00:06:44.922Z,88.31
2018-02-23T00:07:44.938Z,88.12
2018-02-23T00:08:45.050Z,87.93
2018-02-23T00:09:44.964Z,88.12
2018-02-23T00:10:44.976Z,87.93
2018-02-23T00:11:44.989Z,87.93
2018-02-23T00:12:45.003Z,88.12
2018-02-23T00:13:45.016Z,88.22
2018-02-23T00:14:45.029Z,88.03
2018-02-23T00:15:45.043Z,88.12
2018-02-23T00:16:45.057Z,88.41
2018-02-23T00:17:45.069Z,88.12
2018-02-23T00:18:45.082Z,88.22
2018-02-23T00:19:45.096Z,88.60
2018-02-23T00:20:45.115Z,88.50
2018-02-23T00:21:45.122Z,88.22
2018-02-23T00:22:45.136Z,88.41
2018-02-23T00:23:45.150Z,88.41
2018-02-23T00:24:45.163Z,88.60
2018-02-23T00:25:45.176Z,88.50
2018-02-23T00:26:45.194Z,88.31
2018-02-23T00:27:45.204Z,88.41
2018-02-23T00:28:45.217Z,88.31
2018-02-23T00:29:45.230Z,88.31
2018-02-23T00:30:45.243Z,88.88
2018-02-23T00:31:45.256Z,89.07
2018-02-23T00:32:45.271Z,88.98
2018-02-23T00:33:45.283Z,88.79
2018-02-23T00:34:45.296Z,88.98
2018-02-23T00:35:45.310Z,89.17
2018-02-23T00:36:45.361Z,89.36
2018-02-23T00:37:45.337Z,89.17
2018-02-23T00:38:45.354Z,89.54
2018-02-23T00:39:45.363Z,89.64
2018-02-23T00:40:45.378Z,89.36
2018-02-23T00:41:45.391Z,90.01
2018-02-23T00:42:45.404Z,90.01
2018-02-23T00:43:45.417Z,89.83
2018-02-23T00:44:45.435Z,90.01
2018-02-23T00:45:45.443Z,90.11
2018-02-23T00:46:45.457Z,89.83
2018-02-23T00:47:45.472Z,90.49
2018-02-23T00:48:45.484Z,90.39
2018-02-23T00:49:45.497Z,90.01
2018-02-23T00:50:45.511Z,90.20
2018-02-23T00:51:45.525Z,90.49
2018-02-23T00:52:45.537Z,90.30
2018-02-23T00:53:45.550Z,90.39
2018-02-23T00:54:45.563Z,90.39
2018-02-23T00:55:45.577Z,90.49
2018-02-23T00:56:45.591Z,90.39
2018-02-23T00:57:45.604Z,90.68
2018-02-23T00:58:45.618Z,90.96
2018-02-23T00:59:45.631Z,91.15
2018-02-23T01:00:45.686Z,90.86
2018-02-23T01:01:45.656Z,90.77
2018-02-23T01:02:45.670Z,91.24
2018-02-23T01:03:45.684Z,91.05
2018-02-23T01:04:45.697Z,90.96
2018-02-23T01:05:45.710Z,91.62
2018-02-23T01:06:45.723Z,91.91
2018-02-23T01:07:45.736Z,91.62
2018-02-23T01:08:45.751Z,91.81
2018-02-23T01:09:45.763Z,91.43
2018-02-23T01:10:45.777Z,91.43
2018-02-23T01:11:45.791Z,91.43
2018-02-23T01:12:45.805Z,91.53
2018-02-23T01:13:45.818Z,91.91
2018-02-23T01:14:45.831Z,91.53
2018-02-23T01:15:45.845Z,91.34
2018-02-23T01:16:45.859Z,91.81
2018-02-23T01:17:45.873Z,91.72
2018-02-23T01:18:45.885Z,91.62
2018-02-23T01:19:45.899Z,91.53
2018-02-23T01:20:45.912Z,91.72
2018-02-23T01:21:45.926Z,91.72
2018-02-23T01:22:45.939Z,91.72
2018-02-23T01:23:45.953Z,91.72
2018-02-23T01:24:45.967Z,92.29
2018-02-23T01:25:45.982Z,92.00
2018-02-23T01:26:46.000Z,92.19
2018-02-23T01:27:46.007Z,92.38
2018-02-23T01:28:46.021Z,92.76
2018-02-23T01:29:46.034Z,92.38
2018-02-23T01:30:46.048Z,92.66
2018-02-23T01:31:46.062Z,92.94
2018-02-23T01:32:46.075Z,92.57
2018-02-23T01:33:46.088Z,92.38
2018-02-23T01:34:46.102Z,92.38
2018-02-23T01:35:46.116Z,92.57
2018-02-23T01:36:46.129Z,92.76
2018-02-23T01:37:46.142Z,92.76
2018-02-23T01:38:46.156Z,92.66
2018-02-23T01:39:46.171Z,92.57
2018-02-23T01:40:46.183Z,92.47
2018-02-23T01:41:46.196Z,92.66
2018-02-23T01:42:46.210Z,92.57
2018-02-23T01:43:46.224Z,92.80
2018-02-23T01:44:46.238Z,92.76
2018-02-23T01:45:46.250Z,93.23
2018-02-23T01:46:46.265Z,93.04
2018-02-23T01:47:46.278Z,92.94
2018-02-23T01:48:46.292Z,92.76
2018-02-23T01:49:46.306Z,92.76
2018-02-23T01:50:46.319Z,92.80
2018-02-23T01:51:46.335Z,92.94
2018-02-23T01:52:46.346Z,92.94
2018-02-23T01:53:46.361Z,92.94
2018-02-23T01:54:46.410Z,92.66
2018-02-23T01:55:46.386Z,93.42
2018-02-23T01:56:46.400Z,93.13
2018-02-23T01:57:46.413Z,93.32
2018-02-23T01:58:46.430Z,93.70
2018-02-23T01:59:46.441Z,93.61
2018-02-23T02:00:46.454Z,93.70
2018-02-23T02:01:46.467Z,93.51
2018-02-23T02:02:46.482Z,93.51
2018-02-23T02:03:46.495Z,93.80
2018-02-23T02:04:46.507Z,93.99
2018-02-23T02:05:46.521Z,94.18
2018-02-23T02:06:46.535Z,94.37
2018-02-23T02:07:46.548Z,93.89
2018-02-23T02:08:46.562Z,94.18
2018-02-23T02:09:46.578Z,93.89
2018-02-23T02:10:46.589Z,93.80
2018-02-23T02:11:46.603Z,94.08
2018-02-23T02:12:46.618Z,94.08
2018-02-23T02:13:46.630Z,94.56
2018-02-23T02:14:46.643Z,94.56
2018-02-23T02:15:46.657Z,94.51
2018-02-23T02:16:46.672Z,94.08
2018-02-23T02:17:46.684Z,94.27
2018-02-23T02:18:46.697Z,93.99
2018-02-23T02:19:46.714Z,94.18
2018-02-23T02:20:46.725Z,93.80
2018-02-23T02:21:46.738Z,94.56
2018-02-23T02:22:46.752Z,94.56
2018-02-23T02:23:46.765Z,94.65
2018-02-23T02:24:46.820Z,94.56
2018-02-23T02:25:46.791Z,94.65
2018-02-23T02:26:46.806Z,94.65
2018-02-23T02:27:46.820Z,94.74
2018-02-23T02:28:46.834Z,94.93
2018-02-23T02:29:46.848Z,94.56
2018-02-23T02:30:47.215Z,94.37
2018-02-23T02:31:46.873Z,95.03
2018-02-23T02:32:46.886Z,95.12
2018-02-23T02:33:46.900Z,94.84
2018-02-23T02:34:46.914Z,94.84
2018-02-23T02:35:46.927Z,94.74
2018-02-23T02:36:46.941Z,94.74
2018-02-23T02:37:46.954Z,95.03
2018-02-23T02:38:46.967Z,95.31
2018-02-23T02:39:46.981Z,94.93
2018-02-23T02:40:46.996Z,94.93
2018-02-23T02:41:47.008Z,95.31
2018-02-23T02:42:47.021Z,95.78
2018-02-23T02:43:47.035Z,95.50
2018-02-23T02:44:47.049Z,95.59
2018-02-23T02:45:47.061Z,95.40
2018-02-23T02:46:47.075Z,95.69
2018-02-23T02:47:47.090Z,95.88
2018-02-23T02:48:47.101Z,95.59
2018-02-23T02:49:47.115Z,95.88
2018-02-23T02:50:47.127Z,95.69
2018-02-23T02:51:47.143Z,96.35
2018-02-23T02:52:47.156Z,96.35
2018-02-23T02:53:47.167Z,95.50
2018-02-23T02:54:47.182Z,95.69
2018-02-23T02:55:47.195Z,95.88
2018-02-23T02:56:47.209Z,95.40
2018-02-23T02:57:47.223Z,95.59
2018-02-23T02:58:47.235Z,95.69
2018-02-23T02:59:47.249Z,95.78
2018-02-23T03:00:47.272Z,95.69
2018-02-23T03:01:47.275Z,95.59
2018-02-23T03:02:47.290Z,96.07
2018-02-23T03:03:47.303Z,96.26
2018-02-23T03:04:47.317Z,95.88
2018-02-23T03:05:47.332Z,95.97
2018-02-23T03:06:47.342Z,96.07
2018-02-23T03:07:47.362Z,96.35
2018-02-23T03:08:47.368Z,95.88
2018-02-23T03:09:47.382Z,96.35
2018-02-23T03:10:47.397Z,96.64
2018-02-23T03:11:47.412Z,96.54
2018-02-23T03:12:47.424Z,96.26
2018-02-23T03:13:47.436Z,96.54
2018-02-23T03:14:47.450Z,96.92
2018-02-23T03:15:47.464Z,96.83
2018-02-23T03:16:47.478Z,97.01
2018-02-23T03:17:47.491Z,96.83
2018-02-23T03:18:47.503Z,97.20
2018-02-23T03:19:47.516Z,97.11
2018-02-23T03:20:47.531Z,97.49
2018-02-23T03:21:47.542Z,97.01
2018-02-23T03:22:47.558Z,97.39
2018-02-23T03:23:47.570Z,97.39
2018-02-23T03:24:47.584Z,97.20
2018-02-23T03:25:47.597Z,97.20
2018-02-23T03:26:47.636Z,97.20
2018-02-23T03:27:47.624Z,97.77
2018-02-23T03:28:47.638Z,97.77
2018-02-23T03:29:47.650Z,97.86
2018-02-23T03:30:47.668Z,97.49
2018-02-23T03:31:47.677Z,97.58
2018-02-23T03:32:47.691Z,98.05
2018-02-23T03:33:47.703Z,97.86
2018-02-23T03:34:47.716Z,97.58
2018-02-23T03:35:47.733Z,98.14
2018-02-23T03:36:47.743Z,98.05
2018-02-23T03:37:47.757Z,97.77
2018-02-23T03:38:47.770Z,98.33
2018-02-23T03:39:47.783Z,98.52
2018-02-23T03:40:47.797Z,98.24
2018-02-23T03:41:47.810Z,98.05
2018-02-23T03:42:47.823Z,98.43
2018-02-23T03:43:47.837Z,98.81
2018-02-23T03:44:47.850Z,98.71
2018-02-23T03:45:47.863Z,98.90
2018-02-23T03:46:47.876Z,98.81
2018-02-23T03:47:47.890Z,98.62
2018-02-23T03:48:47.903Z,98.52
2018-02-23T03:49:47.916Z,98.62
2018-02-23T03:50:47.929Z,98.62
2018-02-23T03:51:47.944Z,98.43
2018-02-23T03:52:47.955Z,99.38
2018-02-23T03:53:47.971Z,99.19
2018-02-23T03:54:47.982Z,99.09
2018-02-23T03:55:47.995Z,99.00
2018-02-23T03:56:48.009Z,98.90
2018-02-23T03:57:48.021Z,99.00
2018-02-23T03:58:48.034Z,99.00
2018-02-23T03:59:48.049Z,99.38
2018-02-23T04:00:48.061Z,99.19
2018-02-23T04:01:48.072Z,99.99
2018-02-23T04:02:48.086Z,99.76
2018-02-23T04:03:48.100Z,99.66
2018-02-23T04:04:48.116Z,99.85
2018-02-23T04:05:48.125Z,99.57
2018-02-23T04:06:48.139Z,99.38
2018-02-23T04:07:48.152Z,99.99
2018-02-23T04:08:48.165Z,99.99
2018-02-23T04:09:48.177Z,99.99
2018-02-23T04:10:48.191Z,99.95
2018-02-23T04:11:48.205Z,99.95
2018-02-23T04:12:48.216Z,99.95
2018-02-23T04:13:48.230Z,99.99
2018-02-23T04:14:48.242Z,99.99
2018-02-23T04:15:48.255Z,99.99
2018-02-23T04:16:48.269Z,99.99
2018-02-23T04:17:48.282Z,99.99
2018-02-23T04:18:48.294Z,99.99
2018-02-23T04:19:48.307Z,99.99
2018-02-23T04:20:48.321Z,99.99
2018-02-23T04:21:48.333Z,99.99
2018-02-23T04:22:48.346Z,99.99
2018-02-23T04:23:48.358Z,99.99
2018-02-23T04:24:48.372Z,99.99
2018-02-23T04:25:48.384Z,99.99
2018-02-23T04:26:48.398Z,99.99
2018-02-23T04:27:48.411Z,99.99
2018-02-23T04:28:48.423Z,99.99
2018-02-23T04:29:48.435Z,99.99
2018-02-23T04:30:48.448Z,99.99
2018-02-23T04:31:48.466Z,99.99
2018-02-23T04:32:48.474Z,99.99
2018-02-23T04:33:48.487Z,99.99
2018-02-23T04:34:48.500Z,99.99
2018-02-23T04:35:48.512Z,99.99
2018-02-23T04:36:48.525Z,99.99
2018-02-23T04:37:48.537Z,99.99
2018-02-23T04:38:48.551Z,99.99
2018-02-23T04:39:48.564Z,99.99
2018-02-23T04:40:48.577Z,99.99
2018-02-23T04:41:48.589Z,99.99
2018-02-23T04:42:48.602Z,99.85
2018-02-23T04:43:48.615Z,99.99
2018-02-23T04:44:48.628Z,99.76
2018-02-23T04:45:48.640Z,99.99
2018-02-23T04:46:48.654Z,99.99
2018-02-23T04:47:48.666Z,99.76
2018-02-23T04:48:48.679Z,99.89
2018-02-23T04:49:48.695Z,99.99
2018-02-23T04:50:48.705Z,99.99
2018-02-23T04:51:48.718Z,99.99
2018-02-23T04:52:48.731Z,99.99
2018-02-23T04:53:48.743Z,99.99
2018-02-23T04:54:48.756Z,99.99
2018-02-23T04:55:48.769Z,99.99
2018-02-23T04:56:48.782Z,99.99
2018-02-23T04:57:48.795Z,99.99
2018-02-23T04:58:48.808Z,99.89
2018-02-23T04:59:48.820Z,99.80
2018-02-23T05:00:48.834Z,99.99
2018-02-23T05:01:48.845Z,99.99
2018-02-23T05:02:48.859Z,99.99
2018-02-23T05:03:48.872Z,99.99
2018-02-23T05:04:48.883Z,99.99
2018-02-23T05:05:48.896Z,99.99
2018-02-23T05:06:48.910Z,99.99
2018-02-23T05:07:48.923Z,99.99
2018-02-23T05:08:48.935Z,99.99
2018-02-23T05:09:48.947Z,99.99
2018-02-23T05:10:49.020Z,99.99
2018-02-23T05:11:48.973Z,99.99
2018-02-23T05:12:48.984Z,99.99
2018-02-23T05:13:48.999Z,99.99
2018-02-23T05:14:49.010Z,99.99
2018-02-23T05:15:49.023Z,99.99
2018-02-23T05:16:49.038Z,99.99
2018-02-23T05:17:49.048Z,99.99
2018-02-23T05:18:49.061Z,99.99
2018-02-23T05:19:49.074Z,99.99
2018-02-23T05:20:49.088Z,99.99
2018-02-23T05:21:49.098Z,99.99
2018-02-23T05:22:49.112Z,99.99
2018-02-23T05:23:49.127Z,99.99
2018-02-23T05:24:49.146Z,99.99
2018-02-23T05:25:49.150Z,99.99
2018-02-23T05:26:49.161Z,99.99
2018-02-23T05:27:49.175Z,99.99
2018-02-23T05:28:49.187Z,99.99
2018-02-23T05:29:49.199Z,99.99
2018-02-23T05:30:49.212Z,99.99
2018-02-23T05:31:49.225Z,99.99
2018-02-23T05:32:49.238Z,99.99
2018-02-23T05:33:49.250Z,99.99
2018-02-23T05:34:49.263Z,99.99
2018-02-23T05:35:49.276Z,99.99
2018-02-23T05:36:49.287Z,99.99
2018-02-23T05:37:49.299Z,99.99
2018-02-23T05:38:49.312Z,99.99
2018-02-23T05:39:49.325Z,99.99
2018-02-23T05:40:49.337Z,99.80
2018-02-23T05:41:49.350Z,99.99
2018-02-23T05:42:49.362Z,99.99
2018-02-23T05:43:49.374Z,99.99
2018-02-23T05:44:49.387Z,99.71
2018-02-23T05:45:49.402Z,99.99
2018-02-23T05:46:49.413Z,99.99
2018-02-23T05:47:49.424Z,99.99
2018-02-23T05:48:49.437Z,99.99
2018-02-23T05:49:49.449Z,99.80
2018-02-23T05:50:49.514Z,99.99
2018-02-23T05:51:49.475Z,99.23
2018-02-23T05:52:49.488Z,98.95
2018-02-23T05:53:49.499Z,99.23
2018-02-23T05:54:49.512Z,98.85
2018-02-23T05:55:49.526Z,99.23
2018-02-23T05:56:49.541Z,98.57
2018-02-23T05:57:49.551Z,98.76
2018-02-23T05:58:49.562Z,98.47
2018-02-23T05:59:49.582Z,98.10
2018-02-23T06:00:49.588Z,97.81
2018-02-23T06:01:49.599Z,97.81
2018-02-23T06:02:49.613Z,97.91
2018-02-23T06:03:49.626Z,97.63
2018-02-23T06:04:49.646Z,97.53
2018-02-23T06:05:49.650Z,97.63
2018-02-23T06:06:49.666Z,97.91
2018-02-23T06:07:49.676Z,97.53
2018-02-23T06:08:49.688Z,97.15
2018-02-23T06:09:49.700Z,96.96
2018-02-23T06:10:49.712Z,97.15
2018-02-23T06:11:49.725Z,97.34
2018-02-23T06:12:49.738Z,97.34
2018-02-23T06:13:49.752Z,97.25
2018-02-23T06:14:49.763Z,97.06
2018-02-23T06:15:49.775Z,97.34
2018-02-23T06:16:49.788Z,97.25
2018-02-23T06:17:49.800Z,96.59
2018-02-23T06:18:49.814Z,96.40
2018-02-23T06:19:49.826Z,96.59
2018-02-23T06:20:49.838Z,96.68
2018-02-23T06:21:49.850Z,96.11
2018-02-23T06:22:49.863Z,96.02
2018-02-23T06:23:49.875Z,96.30
2018-02-23T06:24:49.888Z,96.21
2018-02-23T06:25:49.899Z,96.11
2018-02-23T06:26:49.913Z,95.36
2018-02-23T06:27:49.926Z,95.64
2018-02-23T06:28:49.938Z,95.73
2018-02-23T06:29:49.950Z,95.73
2018-02-23T06:30:49.963Z,95.64
2018-02-23T06:31:49.977Z,95.64
2018-02-23T06:32:49.988Z,95.54
2018-02-23T06:33:49.999Z,95.17
2018-02-23T06:34:50.019Z,95.26
2018-02-23T06:35:50.028Z,94.79
2018-02-23T06:36:50.039Z,94.70
2018-02-23T06:37:50.049Z,95.07
2018-02-23T06:38:50.062Z,94.79
2018-02-23T06:39:50.075Z,94.79
2018-02-23T06:40:50.088Z,95.07
2018-02-23T06:41:50.101Z,94.98
2018-02-23T06:42:50.113Z,94.79
2018-02-23T06:43:50.125Z,95.07
2018-02-23T06:44:50.138Z,95.07
2018-02-23T06:45:50.154Z,94.51
2018-02-23T06:46:50.163Z,94.41
2018-02-23T06:47:50.176Z,94.70
2018-02-23T06:48:50.188Z,94.89
2018-02-23T06:49:50.200Z,94.03
2018-02-23T06:50:50.212Z,94.51
2018-02-23T06:51:50.225Z,94.51
2018-02-23T06:52:50.238Z,94.32
2018-02-23T06:53:50.263Z,93.75
2018-02-23T06:54:50.263Z,93.84
2018-02-23T06:55:50.276Z,93.56
2018-02-23T06:56:50.290Z,94.13
2018-02-23T06:57:50.300Z,93.94
2018-02-23T06:58:50.312Z,93.56
2018-02-23T06:59:50.324Z,94.32
2018-02-23T07:00:50.338Z,94.03
2018-02-23T07:01:50.351Z,93.66
2018-02-23T07:02:50.364Z,93.28
2018-02-23T07:03:50.407Z,93.94
2018-02-23T07:04:50.389Z,93.66
2018-02-23T07:05:50.458Z,93.56
2018-02-23T07:06:50.417Z,93.47
2018-02-23T07:07:50.425Z,92.99
2018-02-23T07:08:50.440Z,92.99
2018-02-23T07:09:50.452Z,93.18
2018-02-23T07:10:50.520Z,93.28
2018-02-23T07:11:50.476Z,92.52
2018-02-23T07:12:50.489Z,92.52
2018-02-23T07:13:50.500Z,92.52
2018-02-23T07:14:50.513Z,92.71
2018-02-23T07:15:50.526Z,92.05
2018-02-23T07:16:50.539Z,92.24
2018-02-23T07:17:50.551Z,92.24
2018-02-23T07:18:50.564Z,92.05
2018-02-23T07:19:50.576Z,92.43
2018-02-23T07:20:50.589Z,91.96
2018-02-23T07:21:50.602Z,92.14
2018-02-23T07:22:50.614Z,91.58
2018-02-23T07:23:50.627Z,91.20
2018-02-23T07:24:50.648Z,91.58
2018-02-23T07:25:50.651Z,91.39
2018-02-23T07:26:50.665Z,91.39
2018-02-23T07:27:50.678Z,91.67
2018-02-23T07:28:50.691Z,91.01
2018-02-23T07:29:50.702Z,90.63
2018-02-23T07:30:50.716Z,90.82
2018-02-23T07:31:50.778Z,91.01
2018-02-23T07:32:50.742Z,90.16
2018-02-23T07:33:50.784Z,90.35
2018-02-23T07:34:50.766Z,90.35
2018-02-23T07:35:50.779Z,90.44
2018-02-23T07:36:50.792Z,90.25
2018-02-23T07:37:50.804Z,89.78
2018-02-23T07:38:50.817Z,90.16
2018-02-23T07:39:50.831Z,89.83
2018-02-23T07:40:50.843Z,89.83
2018-02-23T07:41:50.855Z,89.54
2018-02-23T07:42:50.867Z,89.36
2018-02-23T07:43:50.881Z,89.26
2018-02-23T07:44:50.894Z,88.65
2018-02-23T07:45:50.906Z,88.60
2018-02-23T07:46:50.919Z,88.69
2018-02-23T07:47:50.932Z,88.22
2018-02-23T07:48:50.945Z,87.93
2018-02-23T07:49:50.956Z,88.12
2018-02-23T07:50:50.970Z,87.55
2018-02-23T07:51:50.983Z,87.27
2018-02-23T07:52:50.997Z,86.71
2018-02-23T07:53:51.009Z,86.52
2018-02-23T07:54:51.022Z,85.85
2018-02-23T07:55:51.034Z,85.10
2018-02-23T07:56:51.048Z,84.34
2018-02-23T07:57:51.060Z,84.34
2018-02-23T07:58:51.073Z,83.59
2018-02-23T07:59:51.085Z,83.30
2018-02-23T08:00:51.099Z,82.54
2018-02-23T08:01:51.111Z,82.17
2018-02-23T08:02:51.124Z,82.73
2018-02-23T08:03:51.140Z,82.45
2018-02-23T08:04:51.151Z,82.45
2018-02-23T08:05:51.165Z,81.88
2018-02-23T08:06:51.176Z,81.79
2018-02-23T08:07:51.200Z,81.22
2018-02-23T08:08:51.206Z,81.22
2018-02-23T08:09:51.215Z,80.94
2018-02-23T08:10:51.228Z,80.56
2018-02-23T08:11:51.242Z,79.99
2018-02-23T08:12:51.255Z,78.95
2018-02-23T08:13:51.267Z,79.24
2018-02-23T08:14:51.286Z,78.86
2018-02-23T08:15:51.294Z,78.29
2018-02-23T08:16:51.311Z,77.72
2018-02-23T08:17:51.320Z,77.63
2018-02-23T08:18:51.333Z,77.53
2018-02-23T08:19:51.347Z,77.15
2018-02-23T08:20:51.360Z,77.15
2018-02-23T08:21:51.374Z,77.25
2018-02-23T08:22:51.407Z,76.31
2018-02-23T08:23:51.399Z,75.93
2018-02-23T08:24:51.412Z,75.45
2018-02-23T08:25:51.426Z,75.55
2018-02-23T08:26:51.448Z,75.45
2018-02-23T08:27:51.454Z,75.36
2018-02-23T08:28:51.466Z,74.79
2018-02-23T08:29:51.477Z,75.07
2018-02-23T08:30:51.491Z,74.13
2018-02-23T08:31:51.505Z,73.28
2018-02-23T08:32:51.521Z,73.28
2018-02-23T08:33:51.532Z,73.37
2018-02-23T08:34:51.544Z,73.50
2018-02-23T08:35:51.557Z,73.09
2018-02-23T08:36:51.571Z,73.37
2018-02-23T08:37:51.583Z,72.80
2018-02-23T08:38:51.598Z,72.80
2018-02-23T08:39:51.611Z,72.80
2018-02-23T08:40:51.625Z,72.71
2018-02-23T08:41:51.639Z,73.50
2018-02-23T08:42:51.651Z,72.71
2018-02-23T08:43:51.669Z,72.94
2018-02-23T08:44:51.678Z,73.41
2018-02-23T08:45:51.691Z,73.37
2018-02-23T08:46:51.704Z,73.41
2018-02-23T08:47:51.718Z,73.79
2018-02-23T08:48:51.732Z,73.69
2018-02-23T08:49:51.745Z,73.50
2018-02-23T08:50:51.758Z,73.50
2018-02-23T08:51:51.772Z,73.03
2018-02-23T08:52:51.786Z,72.85
2018-02-23T08:53:51.799Z,72.85
2018-02-23T08:54:51.813Z,73.22
2018-02-23T08:55:52.079Z,72.75
2018-02-23T08:56:51.840Z,72.14
2018-02-23T08:57:51.853Z,72.71
2018-02-23T08:58:51.867Z,72.75
2018-02-23T08:59:51.881Z,72.94
2018-02-23T09:00:51.896Z,72.85
2018-02-23T09:01:51.908Z,72.37
2018-02-23T09:02:51.926Z,72.66
2018-02-23T09:03:51.935Z,72.56
2018-02-23T09:04:51.949Z,72.56
2018-02-23T09:05:51.962Z,72.75
2018-02-23T09:06:51.980Z,72.66
2018-02-23T09:07:51.990Z,72.09
2018-02-23T09:08:52.004Z,71.42
2018-02-23T09:09:52.016Z,71.90
2018-02-23T09:10:52.030Z,71.52
2018-02-23T09:11:52.044Z,71.52
2018-02-23T09:12:52.058Z,71.52
2018-02-23T09:13:52.071Z,71.52
2018-02-23T09:14:52.085Z,71.14
2018-02-23T09:15:52.099Z,70.95
2018-02-23T09:16:52.113Z,70.67
2018-02-23T09:17:52.126Z,71.14
2018-02-23T09:18:52.142Z,71.33
2018-02-23T09:19:52.155Z,71.52
2018-02-23T09:20:52.167Z,71.33
2018-02-23T09:21:52.182Z,71.14
2018-02-23T09:22:52.197Z,70.86
2018-02-23T09:23:52.211Z,70.95
2018-02-23T09:24:52.226Z,71.23
2018-02-23T09:25:52.235Z,71.42
2018-02-23T09:26:52.250Z,71.04
2018-02-23T09:27:52.264Z,71.23
2018-02-23T09:28:52.278Z,71.33
2018-02-23T09:29:52.292Z,71.61
2018-02-23T09:30:52.304Z,71.14
2018-02-23T09:31:52.319Z,71.23
2018-02-23T09:32:52.333Z,71.04
2018-02-23T09:33:52.347Z,70.95
2018-02-23T09:34:52.360Z,71.23
2018-02-23T09:35:52.375Z,70.67
2018-02-23T09:36:52.388Z,70.67
2018-02-23T09:37:52.401Z,71.23
2018-02-23T09:38:52.418Z,71.04
2018-02-23T09:39:52.431Z,71.23
2018-02-23T09:40:52.444Z,71.61
2018-02-23T09:41:52.457Z,71.52
2018-02-23T09:42:52.471Z,71.33
2018-02-23T09:43:52.485Z,71.61
2018-02-23T09:44:52.498Z,71.71
2018-02-23T09:45:52.512Z,71.52
2018-02-23T09:46:52.526Z,71.52
2018-02-23T09:47:52.540Z,71.80
2018-02-23T09:48:52.554Z,71.52
2018-02-23T09:49:52.567Z,71.71
2018-02-23T09:50:52.581Z,71.71
2018-02-23T09:51:52.594Z,71.80
2018-02-23T09:52:52.608Z,72.37
2018-02-23T09:53:52.621Z,71.52
2018-02-23T09:54:52.635Z,71.23
2018-02-23T09:55:52.653Z,70.29
2018-02-23T09:56:52.663Z,70.67
2018-02-23T09:57:52.675Z,70.39
2018-02-23T09:58:52.690Z,70.29
2018-02-23T09:59:52.703Z,69.72
2018-02-23T10:00:52.717Z,69.63
2018-02-23T10:01:52.730Z,69.06
2018-02-23T10:02:52.743Z,68.68
2018-02-23T10:03:52.763Z,68.40
2018-02-23T10:04:52.771Z,68.68
2018-02-23T10:05:52.786Z,69.44
2018-02-23T10:06:52.804Z,68.43
2018-02-23T10:07:52.812Z,67.55
2018-02-23T10:08:52.827Z,66.88
2018-02-23T10:09:52.841Z,67.07
2018-02-23T10:10:52.879Z,66.98
2018-02-23T10:11:52.867Z,66.41
2018-02-23T10:12:52.881Z,66.31
2018-02-23T10:13:53.095Z,66.31
2018-02-23T10:14:52.908Z,66.79
2018-02-23T10:15:52.922Z,65.94
2018-02-23T10:16:52.936Z,66.16
2018-02-23T10:17:52.951Z,65.40
2018-02-23T10:18:52.964Z,65.31
2018-02-23T10:19:52.977Z,64.83
2018-02-23T10:20:52.992Z,64.64
2018-02-23T10:21:53.084Z,64.55
2018-02-23T10:22:53.021Z,64.07
2018-02-23T10:23:53.034Z,64.45
2018-02-23T10:24:53.047Z,63.98
2018-02-23T10:25:53.061Z,64.36
2018-02-23T10:26:53.075Z,64.17
2018-02-23T10:27:53.090Z,63.79
2018-02-23T10:28:53.104Z,62.66
2018-02-23T10:29:53.117Z,62.47
2018-02-23T10:30:53.132Z,63.04
2018-02-23T10:31:53.146Z,62.75
2018-02-23T10:32:53.161Z,61.90
2018-02-23T10:33:53.180Z,62.56
2018-02-23T10:34:53.189Z,62.28
2018-02-23T10:35:53.204Z,62.28
2018-02-23T10:36:53.219Z,61.90
2018-02-23T10:37:53.232Z,61.90
2018-02-23T10:38:53.247Z,62.56
2018-02-23T10:39:53.260Z,62.37
2018-02-23T10:40:53.276Z,62.18
2018-02-23T10:41:53.289Z,62.94
2018-02-23T10:42:53.303Z,62.66
2018-02-23T10:43:53.318Z,62.37
2018-02-23T10:44:53.483Z,61.80
2018-02-23T10:45:53.346Z,60.96
2018-02-23T10:46:53.360Z,61.24
2018-02-23T10:47:53.374Z,61.33
2018-02-23T10:48:53.389Z,61.05
2018-02-23T10:49:53.403Z,61.15
2018-02-23T10:50:53.472Z,60.61
2018-02-23T10:51:53.432Z,60.80
2018-02-23T10:52:53.447Z,60.29
2018-02-23T10:53:53.459Z,59.63
2018-02-23T10:54:53.477Z,59.81
2018-02-23T10:55:53.489Z,60.19
2018-02-23T10:56:53.504Z,60.19
2018-02-23T10:57:53.517Z,60.10
2018-02-23T10:58:53.532Z,59.91
2018-02-23T10:59:53.547Z,59.25
2018-02-23T11:00:53.561Z,58.87
2018-02-23T11:01:53.576Z,59.25
2018-02-23T11:02:53.590Z,59.53
2018-02-23T11:03:53.604Z,59.38
2018-02-23T11:04:53.619Z,59.75
2018-02-23T11:05:53.633Z,58.40
2018-02-23T11:06:53.648Z,58.49
2018-02-23T11:07:53.662Z,59.06
2018-02-23T11:08:53.676Z,58.78
2018-02-23T11:09:53.695Z,59.28
2018-02-23T11:10:53.709Z,59.19
2018-02-23T11:11:53.720Z,59.19
2018-02-23T11:12:53.884Z,58.52
2018-02-23T11:13:53.747Z,58.33
2018-02-23T11:14:53.763Z,58.14
2018-02-23T11:15:53.777Z,58.62
2018-02-23T11:16:53.792Z,58.90
2018-02-23T11:17:53.806Z,58.81
2018-02-23T11:18:53.822Z,59.28
2018-02-23T11:19:53.840Z,59.19
2018-02-23T11:20:53.850Z,59.19
2018-02-23T11:21:53.862Z,59.66
2018-02-23T11:22:53.879Z,59.75
2018-02-23T11:23:53.892Z,59.47
2018-02-23T11:24:53.913Z,59.28
2018-02-23T11:25:53.921Z,59.66
2018-02-23T11:26:53.937Z,59.47
2018-02-23T11:27:53.952Z,59.56
2018-02-23T11:28:53.968Z,60.13
2018-02-23T11:29:53.981Z,59.84
2018-02-23T11:30:53.996Z,60.22
2018-02-23T11:31:54.014Z,59.56
2018-02-23T11:32:54.026Z,60.13
2018-02-23T11:33:54.040Z,60.03
2018-02-23T11:34:54.055Z,59.19
2018-02-23T11:35:54.272Z,59.28
2018-02-23T11:36:54.085Z,59.09
2018-02-23T11:37:54.099Z,58.81
2018-02-23T11:38:54.126Z,58.81
2018-02-23T11:39:54.130Z,58.71
2018-02-23T11:40:54.143Z,58.81
2018-02-23T11:41:54.158Z,58.62
2018-02-23T11:42:54.173Z,58.81
2018-02-23T11:43:54.187Z,58.81
2018-02-23T11:44:54.202Z,59.28
2018-02-23T11:45:54.218Z,59.19
2018-02-23T11:46:54.231Z,58.81
2018-02-23T11:47:54.246Z,58.90
2018-02-23T11:48:54.262Z,59.16
2018-02-23T11:49:54.276Z,59.09
2018-02-23T11:50:54.289Z,59.47
2018-02-23T11:51:54.304Z,59.84
2018-02-23T11:52:54.321Z,60.41
2018-02-23T11:53:54.334Z,60.13
2018-02-23T11:54:54.348Z,60.32
2018-02-23T11:55:54.367Z,60.32
2018-02-23T11:56:54.377Z,60.03
2018-02-23T11:57:54.391Z,60.22
2018-02-23T11:58:54.406Z,59.84
2018-02-23T11:59:54.422Z,59.84
2018-02-23T12:00:54.447Z,59.75
2018-02-23T12:01:54.450Z,60.22
2018-02-23T12:02:54.465Z,59.09
2018-02-23T12:03:54.485Z,59.09
2018-02-23T12:04:54.494Z,58.87
2018-02-23T12:05:54.507Z,60.32
2018-02-23T12:06:54.535Z,60.22
2018-02-23T12:07:54.537Z,60.13
2018-02-23T12:08:54.556Z,60.03
2018-02-23T12:09:54.565Z,60.03
2018-02-23T12:10:54.582Z,59.75
2018-02-23T12:11:54.595Z,60.03
2018-02-23T12:12:54.610Z,60.13
2018-02-23T12:13:54.725Z,60.03
2018-02-23T12:14:54.640Z,59.94
2018-02-23T12:15:54.655Z,59.56
2018-02-23T12:16:54.670Z,59.38
2018-02-23T12:17:54.682Z,60.22
2018-02-23T12:18:54.696Z,60.03
2018-02-23T12:19:54.712Z,60.22
2018-02-23T12:20:54.726Z,59.66
2018-02-23T12:21:54.741Z,58.81
2018-02-23T12:22:54.756Z,59.09
2018-02-23T12:23:54.770Z,59.19
2018-02-23T12:24:54.785Z,59.00
2018-02-23T12:25:54.801Z,59.19
2018-02-23T12:26:54.815Z,58.90
2018-02-23T12:27:54.830Z,58.90
2018-02-23T12:28:54.845Z,59.28
2018-02-23T12:29:55.058Z,59.28
2018-02-23T12:30:54.878Z,59.19
2018-02-23T12:31:54.887Z,59.19
2018-02-23T12:32:54.907Z,58.81
2018-02-23T12:33:54.917Z,58.14
2018-02-23T12:34:54.936Z,58.81
2018-02-23T12:35:54.947Z,59.00
2018-02-23T12:36:54.963Z,59.19
2018-02-23T12:37:54.977Z,58.90
2018-02-23T12:38:54.991Z,59.00
2018-02-23T12:39:55.107Z,57.95
2018-02-23T12:40:55.020Z,58.62
2018-02-23T12:41:55.037Z,59.19
2018-02-23T12:42:55.053Z,58.81
2018-02-23T12:43:55.064Z,58.62
2018-02-23T12:44:55.080Z,58.05
2018-02-23T12:45:55.093Z,58.14
2018-02-23T12:46:55.112Z,58.24
2018-02-23T12:47:55.124Z,58.24
2018-02-23T12:48:55.139Z,58.24
2018-02-23T12:49:55.151Z,58.24
2018-02-23T12:50:55.167Z,57.95
2018-02-23T12:51:55.182Z,57.95
2018-02-23T12:52:55.200Z,58.33